Time;durP1;ratioP1;P1;durP2;ratioP2;P2;SDS_P1;SDS_P2;PMS_P1;PMS_P2;Temp;Humidity;BMP_temperature;BMP_pressure;BME280_temperature;BME280_humidity;BME280_pressure;Samples;Min_cycle;Max_cycle;Signal;HPM_P1;HPM_P2
2020/12/14 00:02:13;;;;;;;8.70;3.60;;;;;;;;;;5067664;28;20107;-49
2020/12/14 00:04:39;;;;;;;6.15;3.58;;;;;;;;;;5068216;28;20407;-51
2020/12/14 00:07:06;;;;;;;5.45;3.83;;;;;;;;;;5076034;28;20570;-49
2020/12/14 00:09:32;;;;;;;4.53;3.38;;;;;;;;;;5067533;28;20036;-50
2020/12/14 00:11:59;;;;;;;5.05;3.70;;;;;;;;;;5067025;28;20149;-47
2020/12/14 00:14:25;;;;;;;5.38;3.47;;;;;;;;;;5075366;28;20032;-49
2020/12/14 00:16:51;;;;;;;4.82;3.63;;;;;;;;;;5067067;28;20060;-47
2020/12/14 00:19:17;;;;;;;7.40;4.35;;;;;;;;;;5066932;28;20033;-50
2020/12/14 00:21:43;;;;;;;5.22;3.97;;;;;;;;;;5066730;28;20028;-46
2020/12/14 00:24:09;;;;;;;7.18;3.80;;;;;;;;;;5066853;28;20047;-48
2020/12/14 00:26:35;;;;;;;6.80;4.03;;;;;;;;;;5076307;28;20409;-49
2020/12/14 00:29:01;;;;;;;6.45;4.13;;;;;;;;;;5087430;28;20031;-46
2020/12/14 00:31:27;;;;;;;5.43;3.35;;;;;;;;;;5087214;28;20085;-47
2020/12/14 00:33:53;;;;;;;5.22;3.20;;;;;;;;;;5082879;28;20024;-46
2020/12/14 00:36:19;;;;;;;5.50;3.67;;;;;;;;;;5066788;28;20028;-48
2020/12/14 00:38:46;;;;;;;4.97;3.30;;;;;;;;;;5070807;28;20035;-47
2020/12/14 00:41:17;;;;;;;5.53;3.55;;;;;;;;;;5087272;28;20028;-46
2020/12/14 00:43:43;;;;;;;6.07;3.30;;;;;;;;;;5086676;28;20024;-46
2020/12/14 00:46:16;;;;;;;4.65;3.40;;;;;;;;;;5086445;28;20051;-48
2020/12/14 00:48:42;;;;;;;5.38;3.67;;;;;;;;;;5080622;28;20040;-49
2020/12/14 00:51:08;;;;;;;7.03;3.90;;;;;;;;;;5066655;28;20052;-48
2020/12/14 00:53:35;;;;;;;4.80;3.20;;;;;;;;;;5066700;28;20033;-49
2020/12/14 00:56:07;;;;;;;6.25;3.58;;;;;;;;;;5066446;28;20458;-49
2020/12/14 00:58:34;;;;;;;6.22;4.32;;;;;;;;;;5066658;28;20111;-50
2020/12/14 01:01:00;;;;;;;6.47;3.58;;;;;;;;;;5066140;28;20028;-50
2020/12/14 01:03:26;;;;;;;6.15;4.03;;;;;;;;;;5067014;28;20025;-46
2020/12/14 01:05:52;;;;;;;5.82;3.80;;;;;;;;;;5066908;28;20040;-48
2020/12/14 01:08:21;;;;;;;6.53;3.40;;;;;;;;;;5066351;28;20020;-46
2020/12/14 01:10:47;;;;;;;8.43;4.45;;;;;;;;;;5066004;28;20036;-46
2020/12/14 01:13:14;;;;;;;6.07;3.70;;;;;;;;;;5066444;28;20020;-46
2020/12/14 01:15:40;;;;;;;5.03;3.63;;;;;;;;;;5066083;28;20039;-47
2020/12/14 01:18:06;;;;;;;6.30;4.20;;;;;;;;;;5066296;28;20519;-46
2020/12/14 01:20:32;;;;;;;5.22;3.60;;;;;;;;;;5066338;28;20119;-46
2020/12/14 01:22:58;;;;;;;6.07;3.78;;;;;;;;;;5065914;28;20033;-47
2020/12/14 01:25:24;;;;;;;5.90;4.10;;;;;;;;;;5066931;28;20055;-47
2020/12/14 01:27:50;;;;;;;5.70;3.58;;;;;;;;;;5066650;28;20494;-46
2020/12/14 01:30:16;;;;;;;6.15;3.70;;;;;;;;;;5066230;28;20103;-46
2020/12/14 01:32:42;;;;;;;5.05;3.50;;;;;;;;;;5065811;28;20553;-48
2020/12/14 01:35:08;;;;;;;4.63;3.10;;;;;;;;;;5065889;28;20501;-50
2020/12/14 01:37:34;;;;;;;4.97;3.25;;;;;;;;;;5065564;28;20410;-48
2020/12/14 01:40:00;;;;;;;3.65;2.80;;;;;;;;;;5065810;28;20033;-50
2020/12/14 01:42:26;;;;;;;5.10;2.78;;;;;;;;;;5066642;28;20099;-50
2020/12/14 01:44:52;;;;;;;4.30;3.47;;;;;;;;;;5070162;28;20029;-51
2020/12/14 01:47:26;;;;;;;4.53;2.97;;;;;;;;;;5069317;28;20162;-46
2020/12/14 01:49:52;;;;;;;5.40;3.53;;;;;;;;;;5074696;28;20032;-46
2020/12/14 01:52:18;;;;;;;6.32;3.50;;;;;;;;;;5089420;28;20062;-46
2020/12/14 01:54:45;;;;;;;5.55;3.53;;;;;;;;;;5090050;28;20084;-46
2020/12/14 01:57:11;;;;;;;5.05;3.45;;;;;;;;;;5090208;28;20024;-47
2020/12/14 01:59:37;;;;;;;4.40;3.10;;;;;;;;;;5070449;28;20517;-47
2020/12/14 02:02:03;;;;;;;3.60;2.88;;;;;;;;;;5069733;28;20043;-49
2020/12/14 02:04:29;;;;;;;6.57;3.70;;;;;;;;;;5069857;28;20052;-50
2020/12/14 02:06:55;;;;;;;4.47;3.13;;;;;;;;;;5070177;28;20109;-47
2020/12/14 02:09:21;;;;;;;6.90;3.22;;;;;;;;;;5069958;28;20028;-50
2020/12/14 02:11:47;;;;;;;3.60;2.58;;;;;;;;;;5069054;28;20609;-48
2020/12/14 02:14:13;;;;;;;3.60;2.65;;;;;;;;;;5069951;28;20100;-47
2020/12/14 02:16:39;;;;;;;4.30;3.00;;;;;;;;;;5069590;28;20548;-47
2020/12/14 02:19:05;;;;;;;3.33;2.35;;;;;;;;;;5068872;28;20371;-50
2020/12/14 02:21:32;;;;;;;3.40;2.30;;;;;;;;;;5069555;28;20452;-47
2020/12/14 02:23:58;;;;;;;4.00;2.70;;;;;;;;;;5069295;28;20020;-48
2020/12/14 02:26:24;;;;;;;3.55;2.40;;;;;;;;;;5069678;28;20463;-47
2020/12/14 02:28:50;;;;;;;3.00;2.35;;;;;;;;;;5076456;28;20055;-48
2020/12/14 02:31:16;;;;;;;3.17;2.13;;;;;;;;;;5089581;28;20035;-47
2020/12/14 02:33:42;;;;;;;3.47;2.47;;;;;;;;;;5089011;28;20735;-47
2020/12/14 02:36:09;;;;;;;3.78;2.20;;;;;;;;;;5088842;28;20036;-48
2020/12/14 02:38:35;;;;;;;3.20;2.35;;;;;;;;;;5069408;28;20517;-47
2020/12/14 02:41:01;;;;;;;3.63;2.28;;;;;;;;;;5068727;28;20560;-48
2020/12/14 02:43:27;;;;;;;3.30;2.28;;;;;;;;;;5069708;28;20021;-51
2020/12/14 02:45:53;;;;;;;2.67;1.85;;;;;;;;;;5069183;28;20040;-50
2020/12/14 02:48:19;;;;;;;2.55;2.05;;;;;;;;;;5068771;28;20386;-46
2020/12/14 02:50:45;;;;;;;3.58;2.08;;;;;;;;;;5068696;28;20041;-46
2020/12/14 02:53:11;;;;;;;3.55;2.38;;;;;;;;;;5069094;28;20021;-46
2020/12/14 02:55:37;;;;;;;2.70;1.88;;;;;;;;;;5067004;28;20608;-49
2020/12/14 02:58:03;;;;;;;3.25;1.92;;;;;;;;;;5068270;28;20526;-48
2020/12/14 03:00:29;;;;;;;2.10;1.63;;;;;;;;;;5068412;28;20086;-49
2020/12/14 03:02:55;;;;;;;2.42;1.63;;;;;;;;;;5068616;28;20483;-46
2020/12/14 03:05:21;;;;;;;2.72;1.90;;;;;;;;;;5068477;28;20056;-47
2020/12/14 03:07:47;;;;;;;3.20;2.53;;;;;;;;;;5068540;28;20060;-51
2020/12/14 03:10:13;;;;;;;3.33;2.28;;;;;;;;;;5067084;28;20568;-50
2020/12/14 03:12:39;;;;;;;2.90;2.03;;;;;;;;;;5068146;28;20025;-47
2020/12/14 03:15:05;;;;;;;4.20;1.95;;;;;;;;;;5071431;28;20103;-50
2020/12/14 03:17:31;;;;;;;3.33;2.30;;;;;;;;;;5088607;28;20024;-48
2020/12/14 03:19:57;;;;;;;3.60;2.10;;;;;;;;;;5087871;28;20085;-49
2020/12/14 03:22:23;;;;;;;3.38;1.88;;;;;;;;;;5089381;28;20106;-49
2020/12/14 03:24:50;;;;;;;2.53;1.80;;;;;;;;;;5086549;28;20028;-51
2020/12/14 03:27:16;;;;;;;2.35;1.85;;;;;;;;;;5088997;28;20020;-48
2020/12/14 03:29:42;;;;;;;2.80;1.90;;;;;;;;;;5088208;28;20034;-48
2020/12/14 03:32:08;;;;;;;3.50;1.75;;;;;;;;;;5088695;28;20497;-48
2020/12/14 03:34:34;;;;;;;2.13;1.80;;;;;;;;;;5088393;28;20114;-48
2020/12/14 03:37:00;;;;;;;2.53;1.77;;;;;;;;;;5068490;28;20047;-51
2020/12/14 03:39:26;;;;;;;3.83;2.00;;;;;;;;;;5068639;28;20661;-51
2020/12/14 03:41:52;;;;;;;2.80;1.90;;;;;;;;;;5068312;28;20035;-50
2020/12/14 03:44:18;;;;;;;3.50;1.70;;;;;;;;;;5067937;28;20646;-50
2020/12/14 03:46:44;;;;;;;3.38;1.92;;;;;;;;;;5066708;28;20509;-49
2020/12/14 03:49:10;;;;;;;2.80;1.80;;;;;;;;;;5068242;28;20039;-49
2020/12/14 03:51:36;;;;;;;3.05;1.90;;;;;;;;;;5067756;28;20035;-48
2020/12/14 03:54:02;;;;;;;2.58;1.73;;;;;;;;;;5068132;28;20028;-49
2020/12/14 03:56:29;;;;;;;2.10;1.52;;;;;;;;;;5067878;28;20028;-49
2020/12/14 03:58:55;;;;;;;2.33;1.40;;;;;;;;;;5067886;28;20032;-47
2020/12/14 04:01:21;;;;;;;5.15;1.95;;;;;;;;;;5067546;28;20032;-50
2020/12/14 04:03:47;;;;;;;3.20;1.70;;;;;;;;;;5066438;28;20036;-47
2020/12/14 04:06:17;;;;;;;3.60;1.73;;;;;;;;;;5066688;28;20032;-48
2020/12/14 04:08:43;;;;;;;1.95;1.50;;;;;;;;;;5067219;28;20024;-49
2020/12/14 04:11:10;;;;;;;2.03;1.50;;;;;;;;;;5067271;28;20523;-47
2020/12/14 04:13:36;;;;;;;3.33;1.75;;;;;;;;;;5066682;28;20495;-50
2020/12/14 04:16:03;;;;;;;3.25;1.65;;;;;;;;;;5067028;28;20024;-47
2020/12/14 04:18:29;;;;;;;2.17;1.60;;;;;;;;;;5067347;28;20430;-47
2020/12/14 04:20:56;;;;;;;3.50;1.90;;;;;;;;;;5066904;28;20178;-51
2020/12/14 04:23:22;;;;;;;2.78;2.28;;;;;;;;;;5067652;28;20086;-47
2020/12/14 04:25:49;;;;;;;3.28;2.20;;;;;;;;;;5066800;28;20519;-49
2020/12/14 04:28:15;;;;;;;3.10;2.25;;;;;;;;;;5066190;28;20024;-49
2020/12/14 04:30:41;;;;;;;2.97;2.08;;;;;;;;;;5066555;28;20013;-50
2020/12/14 04:33:07;;;;;;;3.40;1.83;;;;;;;;;;5067169;28;20082;-50
2020/12/14 04:35:33;;;;;;;2.53;1.90;;;;;;;;;;5066302;28;20033;-49
2020/12/14 04:37:59;;;;;;;2.63;1.70;;;;;;;;;;5066500;28;20028;-46
2020/12/14 04:40:29;;;;;;;2.92;1.80;;;;;;;;;;5066938;28;20032;-47
2020/12/14 04:42:57;;;;;;;2.60;1.90;;;;;;;;;;5070828;28;20620;-46
2020/12/14 04:45:24;;;;;;;3.05;2.00;;;;;;;;;;5086157;28;20025;-49
2020/12/14 04:47:50;;;;;;;2.42;1.88;;;;;;;;;;5076940;28;20028;-49
2020/12/14 04:50:16;;;;;;;2.58;1.67;;;;;;;;;;5082150;28;20027;-47
2020/12/14 04:52:42;;;;;;;2.65;1.88;;;;;;;;;;5074374;28;20448;-49
2020/12/14 04:55:11;;;;;;;1.77;1.60;;;;;;;;;;5093161;28;20031;-47
2020/12/14 04:57:37;;;;;;;2.50;1.65;;;;;;;;;;5085669;28;20549;-46
2020/12/14 05:00:06;;;;;;;2.78;1.95;;;;;;;;;;5086625;28;20028;-47
2020/12/14 05:02:32;;;;;;;2.45;1.70;;;;;;;;;;5080512;28;20115;-46
2020/12/14 05:04:58;;;;;;;3.53;2.25;;;;;;;;;;5066144;28;20032;-46
2020/12/14 05:07:44;;;;;;;2.55;2.00;;;;;;;;;;5067046;28;20028;-47
2020/12/14 05:10:11;;;;;;;2.92;2.00;;;;;;;;;;5066016;28;20024;-47
2020/12/14 05:12:44;;;;;;;3.95;2.15;;;;;;;;;;5067077;28;20691;-46
2020/12/14 05:15:19;;;;;;;2.83;2.13;;;;;;;;;;5068217;28;20028;-47
2020/12/14 05:17:46;;;;;;;5.97;3.00;;;;;;;;;;5065504;28;20433;-48
2020/12/14 05:20:16;;;;;;;3.00;2.28;;;;;;;;;;5085652;28;20401;-47
2020/12/14 05:22:54;;;;;;;4.72;2.80;;;;;;;;;;5085749;28;20024;-47
2020/12/14 05:25:20;;;;;;;3.25;2.22;;;;;;;;;;5086099;28;20047;-46
2020/12/14 05:27:46;;;;;;;3.63;2.65;;;;;;;;;;5080619;28;20025;-47
2020/12/14 05:30:13;;;;;;;3.47;2.10;;;;;;;;;;5068112;28;20028;-49
2020/12/14 05:32:39;;;;;;;3.30;2.50;;;;;;;;;;5067182;28;20050;-47
2020/12/14 05:35:12;;;;;;;4.00;2.40;;;;;;;;;;5066311;28;20043;-46
2020/12/14 05:37:40;;;;;;;3.45;2.70;;;;;;;;;;5065815;28;20033;-48
2020/12/14 05:40:10;;;;;;;3.67;2.63;;;;;;;;;;5066632;28;20474;-48
2020/12/14 05:42:42;;;;;;;3.90;2.38;;;;;;;;;;5078383;28;20486;-46
2020/12/14 05:45:12;;;;;;;3.72;2.38;;;;;;;;;;5066596;28;20028;-46
2020/12/14 05:47:41;;;;;;;4.47;2.72;;;;;;;;;;5065885;28;20025;-47
2020/12/14 05:50:09;;;;;;;4.30;2.60;;;;;;;;;;5065891;28;20156;-51
2020/12/14 05:52:36;;;;;;;3.47;2.35;;;;;;;;;;5065325;28;20027;-51
2020/12/14 05:55:02;;;;;;;3.90;2.40;;;;;;;;;;5065600;28;20035;-51
2020/12/14 05:57:37;;;;;;;4.90;2.95;;;;;;;;;;5065427;28;20028;-49
2020/12/14 06:00:03;;;;;;;3.47;2.08;;;;;;;;;;5065449;28;20035;-50
2020/12/14 06:02:30;;;;;;;3.95;2.50;;;;;;;;;;5065852;28;20123;-50
2020/12/14 06:04:57;;;;;;;2.58;2.10;;;;;;;;;;5066374;28;20036;-46
2020/12/14 06:07:25;;;;;;;4.28;2.50;;;;;;;;;;5066529;28;20032;-47
2020/12/14 06:10:01;;;;;;;2.17;1.95;;;;;;;;;;5065618;28;20043;-47
2020/12/14 06:12:29;;;;;;;3.97;2.40;;;;;;;;;;5066126;28;20086;-47
2020/12/14 06:15:00;;;;;;;3.40;2.60;;;;;;;;;;5066055;28;20029;-46
2020/12/14 06:17:27;;;;;;;4.70;2.53;;;;;;;;;;5075753;28;20082;-48
2020/12/14 06:20:00;;;;;;;4.03;2.67;;;;;;;;;;5085634;28;20032;-47
2020/12/14 06:22:26;;;;;;;3.60;2.15;;;;;;;;;;5086375;28;20501;-48
2020/12/14 06:24:56;;;;;;;3.85;2.35;;;;;;;;;;5085870;28;20024;-50
2020/12/14 06:27:24;;;;;;;2.67;2.25;;;;;;;;;;5076070;28;20021;-48
2020/12/14 06:29:50;;;;;;;4.93;2.40;;;;;;;;;;5067013;28;20116;-49
2020/12/14 06:32:35;;;;;;;3.05;2.33;;;;;;;;;;5069152;28;20074;-48
2020/12/14 06:35:01;;;;;;;3.85;2.58;;;;;;;;;;5069025;28;20028;-49
2020/12/14 06:37:46;;;;;;;5.53;2.53;;;;;;;;;;5067938;28;20657;-50
2020/12/14 06:40:12;;;;;;;3.63;2.53;;;;;;;;;;5068953;28;20036;-48
2020/12/14 06:42:38;;;;;;;4.70;2.80;;;;;;;;;;5068907;28;20460;-50
2020/12/14 06:45:05;;;;;;;3.47;2.50;;;;;;;;;;5068754;28;20035;-47
2020/12/14 06:47:40;;;;;;;2.55;1.95;;;;;;;;;;5086382;28;20106;-49
2020/12/14 06:50:25;;;;;;;4.57;2.78;;;;;;;;;;5088927;28;20524;-51
2020/12/14 06:52:51;;;;;;;3.58;2.35;;;;;;;;;;5072538;28;20035;-47
2020/12/14 06:55:27;;;;;;;3.55;2.38;;;;;;;;;;5081012;28;20021;-47
2020/12/14 06:57:53;;;;;;;3.70;2.40;;;;;;;;;;5069425;28;20036;-47
2020/12/14 07:00:31;;;;;;;3.28;2.38;;;;;;;;;;5071290;28;20016;-51
2020/12/14 07:02:57;;;;;;;3.40;2.20;;;;;;;;;;5071985;28;20024;-51
2020/12/14 07:05:29;;;;;;;3.72;2.33;;;;;;;;;;5085498;28;20059;-49
2020/12/14 07:07:55;;;;;;;3.72;2.22;;;;;;;;;;5080299;28;20103;-47
2020/12/14 07:10:25;;;;;;;3.53;2.50;;;;;;;;;;5088661;28;20058;-47
2020/12/14 07:12:51;;;;;;;2.42;1.90;;;;;;;;;;5074579;28;20032;-46
2020/12/14 07:15:46;;;;;;;2.90;2.10;;;;;;;;;;5077046;28;20024;-48
2020/12/14 07:18:15;;;;;;;2.92;2.00;;;;;;;;;;5074255;28;20032;-46
2020/12/14 07:20:53;;;;;;;3.38;2.13;;;;;;;;;;5087398;28;20020;-46
2020/12/14 07:23:20;;;;;;;3.20;2.08;;;;;;;;;;5087096;28;20499;-47
2020/12/14 07:25:48;;;;;;;2.78;2.10;;;;;;;;;;5086930;28;20533;-46
2020/12/14 07:28:14;;;;;;;3.22;2.10;;;;;;;;;;5086551;28;20023;-49
2020/12/14 07:30:40;;;;;;;2.97;2.15;;;;;;;;;;5086640;28;20433;-46
2020/12/14 07:33:06;;;;;;;4.30;2.33;;;;;;;;;;5086557;28;20050;-49
2020/12/14 07:35:32;;;;;;;3.33;2.28;;;;;;;;;;5086569;28;20024;-48
2020/12/14 07:37:59;;;;;;;3.58;2.42;;;;;;;;;;5086381;28;20016;-50
2020/12/14 07:40:25;;;;;;;2.95;2.08;;;;;;;;;;5086721;28;20028;-50
2020/12/14 07:42:51;;;;;;;3.00;2.03;;;;;;;;;;5086524;28;20031;-49
2020/12/14 07:45:26;;;;;;;2.80;1.90;;;;;;;;;;5086212;28;20134;-48
2020/12/14 07:47:53;;;;;;;3.63;2.50;;;;;;;;;;5087152;28;20024;-50
2020/12/14 07:50:22;;;;;;;3.17;2.35;;;;;;;;;;5086291;28;20060;-49
2020/12/14 07:52:54;;;;;;;3.83;2.47;;;;;;;;;;5085958;28;20031;-50
2020/12/14 07:55:22;;;;;;;3.05;2.03;;;;;;;;;;5082616;28;20039;-48
2020/12/14 07:57:49;;;;;;;3.28;2.10;;;;;;;;;;5071984;28;20081;-47
2020/12/14 08:00:16;;;;;;;2.67;1.73;;;;;;;;;;5087276;28;20020;-47
2020/12/14 08:02:44;;;;;;;2.45;1.67;;;;;;;;;;5080080;28;20028;-50
2020/12/14 08:05:15;;;;;;;2.42;1.60;;;;;;;;;;5065572;28;20521;-47
2020/12/14 08:07:46;;;;;;;2.97;1.90;;;;;;;;;;5065957;28;20040;-46
2020/12/14 08:10:12;;;;;;;3.65;2.10;;;;;;;;;;5065327;28;20037;-46
2020/12/14 08:12:41;;;;;;;3.92;2.50;;;;;;;;;;5066344;28;20032;-48
2020/12/14 08:15:10;;;;;;;2.88;1.67;;;;;;;;;;5067252;28;20515;-49
2020/12/14 08:17:37;;;;;;;3.42;1.75;;;;;;;;;;5077797;28;20028;-46
2020/12/14 08:20:05;;;;;;;2.97;1.98;;;;;;;;;;5075806;28;20036;-46
2020/12/14 08:22:32;;;;;;;2.58;1.80;;;;;;;;;;5087211;28;20020;-47
2020/12/14 08:24:58;;;;;;;3.20;2.28;;;;;;;;;;5071181;28;20034;-50
2020/12/14 08:27:34;;;;;;;2.83;1.95;;;;;;;;;;5067745;28;20119;-49
2020/12/14 08:30:08;;;;;;;2.88;1.85;;;;;;;;;;5066358;28;20103;-48
2020/12/14 08:32:34;;;;;;;2.28;1.55;;;;;;;;;;5067115;28;20032;-49
2020/12/14 08:35:00;;;;;;;3.25;1.60;;;;;;;;;;5066760;28;20059;-46
2020/12/14 08:37:26;;;;;;;2.92;1.83;;;;;;;;;;5085851;28;20525;-46
2020/12/14 08:40:03;;;;;;;2.47;1.90;;;;;;;;;;5087830;28;20093;-48
2020/12/14 08:42:29;;;;;;;1.83;1.45;;;;;;;;;;5076642;28;20024;-45
2020/12/14 08:45:07;;;;;;;3.88;2.10;;;;;;;;;;5078165;28;20029;-46
2020/12/14 08:47:37;;;;;;;2.22;1.67;;;;;;;;;;5066551;28;20020;-47
2020/12/14 08:50:05;;;;;;;1.90;1.40;;;;;;;;;;5069725;28;20029;-47
2020/12/14 08:52:31;;;;;;;1.75;1.52;;;;;;;;;;5066005;28;20479;-46
2020/12/14 08:54:57;;;;;;;2.13;1.48;;;;;;;;;;5064755;28;20036;-47
2020/12/14 08:57:27;;;;;;;2.22;1.42;;;;;;;;;;5065522;28;20034;-47
2020/12/14 09:00:13;;;;;;;2.40;1.30;;;;;;;;;;5065156;28;20060;-47
2020/12/14 09:02:39;;;;;;;3.70;1.83;;;;;;;;;;5064865;28;20039;-47
2020/12/14 09:05:18;;;;;;;5.50;2.40;;;;;;;;;;5064656;28;20099;-47
2020/12/14 09:07:44;;;;;;;5.43;2.30;;;;;;;;;;5064951;28;20024;-50
2020/12/14 09:10:14;;;;;;;3.90;1.83;;;;;;;;;;5064464;28;20040;-46
2020/12/14 09:12:40;;;;;;;3.75;2.10;;;;;;;;;;5064461;28;20028;-47
2020/12/14 09:15:06;;;;;;;3.25;1.83;;;;;;;;;;5064724;28;20028;-48
2020/12/14 09:17:32;;;;;;;3.08;1.92;;;;;;;;;;5064689;28;20108;-46
2020/12/14 09:20:00;;;;;;;3.85;1.80;;;;;;;;;;5064471;28;20128;-47
2020/12/14 09:22:26;;;;;;;2.97;1.73;;;;;;;;;;5065563;28;20437;-47
2020/12/14 09:24:52;;;;;;;3.13;1.85;;;;;;;;;;5064463;28;20571;-46
2020/12/14 09:27:19;;;;;;;2.38;1.45;;;;;;;;;;5064223;28;20032;-48
2020/12/14 09:29:45;;;;;;;2.85;1.80;;;;;;;;;;5064804;28;20445;-47
2020/12/14 09:32:12;;;;;;;2.17;1.42;;;;;;;;;;5064318;28;20029;-50
2020/12/14 09:34:39;;;;;;;2.85;1.92;;;;;;;;;;5072097;28;20104;-47
2020/12/14 09:37:05;;;;;;;2.75;1.58;;;;;;;;;;5085404;28;20036;-51
2020/12/14 09:39:33;;;;;;;2.40;1.52;;;;;;;;;;5072757;28;20403;-47
2020/12/14 09:41:59;;;;;;;1.73;1.40;;;;;;;;;;5085828;28;20036;-47
2020/12/14 09:44:26;;;;;;;2.38;1.40;;;;;;;;;;5079894;28;20055;-48
2020/12/14 09:46:53;;;;;;;2.05;1.60;;;;;;;;;;5066325;28;20032;-47
2020/12/14 09:49:19;;;;;;;2.95;1.50;;;;;;;;;;5071029;28;20076;-47
2020/12/14 09:51:45;;;;;;;1.85;1.42;;;;;;;;;;5075336;28;20255;-49
2020/12/14 09:54:11;;;;;;;2.20;1.33;;;;;;;;;;5063562;28;20028;-47
2020/12/14 09:56:37;;;;;;;2.65;1.42;;;;;;;;;;5063504;28;20032;-47
2020/12/14 09:59:04;;;;;;;3.35;1.90;;;;;;;;;;5062978;28;20029;-47
2020/12/14 10:01:30;;;;;;;3.60;2.00;;;;;;;;;;5066868;28;20043;-46
2020/12/14 10:03:57;;;;;;;4.03;2.58;;;;;;;;;;5077512;28;20034;-48
2020/12/14 10:06:23;;;;;;;2.80;2.00;;;;;;;;;;5081038;28;20025;-49
2020/12/14 10:08:49;;;;;;;3.42;1.88;;;;;;;;;;5079825;28;20066;-48
2020/12/14 10:11:15;;;;;;;2.42;1.67;;;;;;;;;;5067248;28;20115;-47
2020/12/14 10:13:41;;;;;;;1.88;1.30;;;;;;;;;;5078935;28;20081;-48
2020/12/14 10:16:08;;;;;;;2.50;1.50;;;;;;;;;;5087643;28;20119;-47
2020/12/14 10:18:34;;;;;;;1.95;1.23;;;;;;;;;;5087702;28;20104;-48
2020/12/14 10:21:01;;;;;;;4.82;1.33;;;;;;;;;;5086965;28;20105;-47
2020/12/14 10:23:27;;;;;;;2.47;1.20;;;;;;;;;;5086425;28;20115;-47
2020/12/14 10:25:53;;;;;;;0.88;0.70;;;;;;;;;;5087892;28;20031;-48
2020/12/14 10:28:19;;;;;;;0.85;0.68;;;;;;;;;;5078999;28;20043;-48
2020/12/14 10:30:45;;;;;;;1.25;0.80;;;;;;;;;;5083785;28;20039;-48
2020/12/14 10:33:11;;;;;;;1.40;0.80;;;;;;;;;;5074021;28;20024;-48
2020/12/14 10:35:38;;;;;;;0.70;0.70;;;;;;;;;;5071182;28;20056;-47
2020/12/14 10:38:04;;;;;;;0.95;0.63;;;;;;;;;;5086913;28;20026;-47
2020/12/14 10:40:30;;;;;;;1.60;0.75;;;;;;;;;;5079241;28;20017;-47
2020/12/14 10:42:56;;;;;;;1.65;0.90;;;;;;;;;;5073786;28;20020;-47
2020/12/14 10:45:23;;;;;;;1.35;0.80;;;;;;;;;;5072336;28;20033;-47
2020/12/14 10:47:50;;;;;;;0.93;0.82;;;;;;;;;;5068344;28;20020;-47
2020/12/14 10:50:18;;;;;;;2.35;0.90;;;;;;;;;;5076257;28;20115;-49
2020/12/14 10:52:44;;;;;;;1.15;0.80;;;;;;;;;;5072588;28;20474;-51
2020/12/14 10:55:10;;;;;;;1.55;0.70;;;;;;;;;;5071528;28;20052;-50
2020/12/14 10:57:36;;;;;;;1.95;0.63;;;;;;;;;;5068088;28;20024;-50
2020/12/14 11:00:09;;;;;;;0.80;0.70;;;;;;;;;;5086437;28;20496;-51
2020/12/14 11:02:35;;;;;;;1.85;0.73;;;;;;;;;;5086921;28;20013;-47
2020/12/14 11:05:03;;;;;;;1.00;0.70;;;;;;;;;;5086329;28;20032;-47
2020/12/14 11:07:30;;;;;;;0.88;0.88;;;;;;;;;;5086531;28;20016;-48
2020/12/14 11:09:56;;;;;;;1.30;0.93;;;;;;;;;;5084222;28;20051;-49
2020/12/14 11:12:22;;;;;;;2.80;1.17;;;;;;;;;;5065743;28;20060;-50
2020/12/14 11:14:48;;;;;;;0.82;0.70;;;;;;;;;;5066016;28;20498;-49
2020/12/14 11:17:15;;;;;;;1.73;0.80;;;;;;;;;;5064955;28;20511;-46
2020/12/14 11:19:41;;;;;;;2.63;1.15;;;;;;;;;;5070019;28;20094;-48
2020/12/14 11:22:08;;;;;;;1.98;1.05;;;;;;;;;;5078288;28;20121;-47
2020/12/14 11:24:34;;;;;;;2.83;0.90;;;;;;;;;;5086120;28;20504;-50
2020/12/14 11:27:00;;;;;;;3.75;1.10;;;;;;;;;;5085815;28;20343;-47
2020/12/14 11:29:27;;;;;;;2.42;1.15;;;;;;;;;;5086797;28;20091;-48
2020/12/14 11:31:54;;;;;;;1.65;0.80;;;;;;;;;;5081591;28;20311;-46
2020/12/14 11:34:20;;;;;;;1.23;1.02;;;;;;;;;;5071748;28;20074;-48
2020/12/14 11:36:46;;;;;;;2.20;1.10;;;;;;;;;;5066628;28;20036;-51
2020/12/14 11:39:12;;;;;;;1.30;0.90;;;;;;;;;;5086245;28;20506;-49
2020/12/14 11:41:38;;;;;;;2.83;1.17;;;;;;;;;;5085814;28;20036;-47
2020/12/14 11:44:04;;;;;;;1.77;1.00;;;;;;;;;;5071168;28;20558;-48
2020/12/14 11:46:30;;;;;;;1.58;1.08;;;;;;;;;;5078465;28;20107;-49
2020/12/14 11:48:56;;;;;;;1.63;1.10;;;;;;;;;;5086413;28;20020;-48
2020/12/14 11:51:23;;;;;;;2.28;1.20;;;;;;;;;;5078091;28;20025;-47
2020/12/14 11:53:50;;;;;;;2.65;1.10;;;;;;;;;;5065163;28;20028;-46
2020/12/14 11:56:16;;;;;;;1.80;0.90;;;;;;;;;;5065242;28;20498;-47
2020/12/14 11:58:42;;;;;;;1.27;0.90;;;;;;;;;;5065810;28;20033;-47
2020/12/14 12:01:09;;;;;;;3.05;0.85;;;;;;;;;;5065231;28;20029;-48
2020/12/14 12:03:35;;;;;;;2.22;1.17;;;;;;;;;;5065336;28;20085;-47
2020/12/14 12:06:01;;;;;;;2.00;1.08;;;;;;;;;;5065316;28;20085;-46
2020/12/14 12:08:27;;;;;;;1.92;1.13;;;;;;;;;;5065742;28;20024;-46
2020/12/14 12:10:54;;;;;;;2.45;1.20;;;;;;;;;;5065730;28;20382;-49
2020/12/14 12:13:20;;;;;;;2.45;1.30;;;;;;;;;;5065448;28;20021;-48
2020/12/14 12:15:46;;;;;;;2.15;1.30;;;;;;;;;;5074317;28;20016;-47
2020/12/14 12:18:12;;;;;;;2.05;1.00;;;;;;;;;;5083855;28;20380;-47
2020/12/14 12:20:38;;;;;;;1.38;1.00;;;;;;;;;;5064974;28;20032;-46
2020/12/14 12:23:05;;;;;;;1.88;1.15;;;;;;;;;;5068603;28;20029;-47
2020/12/14 12:25:32;;;;;;;2.63;0.80;;;;;;;;;;5079783;28;20486;-49
2020/12/14 12:27:58;;;;;;;1.17;0.75;;;;;;;;;;5071363;28;20041;-50
2020/12/14 12:30:25;;;;;;;1.80;1.00;;;;;;;;;;5067043;28;20450;-48
2020/12/14 12:32:52;;;;;;;1.30;0.70;;;;;;;;;;5066867;28;20013;-49
2020/12/14 12:35:18;;;;;;;1.13;0.98;;;;;;;;;;5065267;28;20131;-50
2020/12/14 12:37:44;;;;;;;0.80;0.70;;;;;;;;;;5065204;28;20099;-48
2020/12/14 12:40:10;;;;;;;2.15;1.15;;;;;;;;;;5064609;28;20049;-49
2020/12/14 12:42:36;;;;;;;1.05;0.75;;;;;;;;;;5065179;28;20028;-47
2020/12/14 12:45:03;;;;;;;0.95;0.60;;;;;;;;;;5064894;28;20058;-46
2020/12/14 12:47:29;;;;;;;1.50;0.70;;;;;;;;;;5064959;28;20483;-48
2020/12/14 12:49:55;;;;;;;1.10;0.60;;;;;;;;;;5065230;28;20028;-46
2020/12/14 12:52:22;;;;;;;0.65;0.60;;;;;;;;;;5063255;28;20024;-48
2020/12/14 12:54:49;;;;;;;1.77;0.70;;;;;;;;;;5064787;28;20029;-48
2020/12/14 12:57:16;;;;;;;1.75;0.80;;;;;;;;;;5064384;28;20104;-47
2020/12/14 12:59:42;;;;;;;1.08;0.80;;;;;;;;;;5065071;28;20025;-48
2020/12/14 13:02:08;;;;;;;2.63;1.33;;;;;;;;;;5065313;28;20484;-50
2020/12/14 13:04:34;;;;;;;1.63;1.05;;;;;;;;;;5068359;28;20402;-49
2020/12/14 13:07:04;;;;;;;2.15;0.75;;;;;;;;;;5065993;28;20020;-50
2020/12/14 13:09:30;;;;;;;1.67;0.80;;;;;;;;;;5069822;28;20094;-47
2020/12/14 13:11:56;;;;;;;4.93;0.90;;;;;;;;;;5083887;28;20032;-46
2020/12/14 13:14:22;;;;;;;1.10;0.73;;;;;;;;;;5082375;28;20486;-48
2020/12/14 13:16:48;;;;;;;2.08;0.80;;;;;;;;;;5066330;28;20028;-49
2020/12/14 13:19:14;;;;;;;2.33;0.88;;;;;;;;;;5067244;28;20743;-48
2020/12/14 13:21:40;;;;;;;0.68;0.68;;;;;;;;;;5080061;28;20104;-48
2020/12/14 13:24:06;;;;;;;2.97;1.02;;;;;;;;;;5081362;28;20020;-47
2020/12/14 13:26:32;;;;;;;1.77;0.98;;;;;;;;;;5063891;28;20144;-46
2020/12/14 13:28:59;;;;;;;1.98;1.00;;;;;;;;;;5064072;28;20029;-47
2020/12/14 13:31:26;;;;;;;2.78;0.98;;;;;;;;;;5062938;28;20040;-49
2020/12/14 13:33:53;;;;;;;2.85;0.90;;;;;;;;;;5063816;28;20027;-47
2020/12/14 13:36:20;;;;;;;1.75;0.90;;;;;;;;;;5063903;28;20039;-49
2020/12/14 13:38:46;;;;;;;2.55;1.30;;;;;;;;;;5063300;28;20406;-49
2020/12/14 13:41:13;;;;;;;1.63;0.98;;;;;;;;;;5065011;28;20642;-47
2020/12/14 13:43:39;;;;;;;1.90;1.20;;;;;;;;;;5071661;28;20070;-46
2020/12/14 13:46:05;;;;;;;1.02;0.60;;;;;;;;;;5084029;28;20024;-46
2020/12/14 13:48:31;;;;;;;0.77;0.77;;;;;;;;;;5072690;28;20024;-49
2020/12/14 13:50:57;;;;;;;1.63;0.85;;;;;;;;;;5063666;28;20025;-49
2020/12/14 13:53:26;;;;;;;1.05;0.70;;;;;;;;;;5063818;28;20024;-50
2020/12/14 13:55:52;;;;;;;1.85;0.80;;;;;;;;;;5063587;28;20446;-50
2020/12/14 13:58:18;;;;;;;2.55;1.10;;;;;;;;;;5063769;28;20020;-47
2020/12/14 14:00:44;;;;;;;2.75;1.05;;;;;;;;;;5063002;28;20036;-47
2020/12/14 14:03:11;;;;;;;1.98;0.73;;;;;;;;;;5067111;28;20100;-48
2020/12/14 14:05:38;;;;;;;1.45;0.75;;;;;;;;;;5072441;28;20047;-47
2020/12/14 14:08:04;;;;;;;2.60;1.05;;;;;;;;;;5083526;28;20024;-48
2020/12/14 14:10:31;;;;;;;2.33;0.90;;;;;;;;;;5069264;28;20267;-51
2020/12/14 14:12:59;;;;;;;1.90;1.10;;;;;;;;;;5063839;28;20309;-46
2020/12/14 14:15:25;;;;;;;1.30;1.00;;;;;;;;;;5063927;28;20028;-47
2020/12/14 14:17:51;;;;;;;3.90;1.13;;;;;;;;;;5063321;28;20031;-46
2020/12/14 14:20:18;;;;;;;3.33;1.10;;;;;;;;;;5062750;28;20112;-48
2020/12/14 14:22:44;;;;;;;1.38;0.95;;;;;;;;;;5075380;28;20040;-47
2020/12/14 14:25:10;;;;;;;1.30;0.75;;;;;;;;;;5062797;28;20028;-45
2020/12/14 14:27:36;;;;;;;2.13;1.10;;;;;;;;;;5063446;28;20052;-46
2020/12/14 14:30:02;;;;;;;3.10;1.05;;;;;;;;;;5066705;28;20017;-45
2020/12/14 14:32:28;;;;;;;2.30;1.13;;;;;;;;;;5076981;28;20032;-45
2020/12/14 14:34:55;;;;;;;3.13;1.27;;;;;;;;;;5082354;28;20035;-48
2020/12/14 14:37:22;;;;;;;2.67;1.08;;;;;;;;;;5083372;28;20115;-45
2020/12/14 14:39:51;;;;;;;2.38;1.05;;;;;;;;;;5072656;28;20466;-50
2020/12/14 14:42:17;;;;;;;7.05;3.00;;;;;;;;;;5081240;28;20043;-47
2020/12/14 14:44:43;;;;;;;2.60;1.40;;;;;;;;;;5075700;28;20021;-50